createdAt,value
2023-02-06T00:01:50.285Z,101541.78
2023-02-06T00:04:22.156Z,101533.88
2023-02-06T00:06:52.060Z,101537.47
2023-02-06T00:09:20.446Z,101545.31
2023-02-06T00:11:51.669Z,101548.91
2023-02-06T00:14:19.976Z,101546.25
2023-02-06T00:17:08.070Z,101552.44
2023-02-06T00:19:39.152Z,101556.91
2023-02-06T00:22:10.732Z,101554.28
2023-02-06T00:24:38.785Z,101546.31
2023-02-06T00:27:08.121Z,101547.19
2023-02-06T00:29:36.289Z,101550.78
2023-02-06T00:32:04.550Z,101560.44
2023-02-06T00:34:32.769Z,101559.53
2023-02-06T00:37:01.075Z,101556.03
2023-02-06T00:39:29.486Z,101571.91
2023-02-06T00:41:57.645Z,101566.59
2023-02-06T00:44:25.773Z,101556.94
2023-02-06T00:46:54.170Z,101578.03
2023-02-06T00:49:23.155Z,101560.53
2023-02-06T00:51:51.711Z,101571.06
2023-02-06T00:54:21.242Z,101554.34
2023-02-06T00:56:49.183Z,101566.63
2023-02-06T00:59:22.796Z,101542.94
2023-02-06T01:01:51.098Z,101567.47
2023-02-06T01:04:19.425Z,101555.16
2023-02-06T01:07:03.184Z,101554.31
2023-02-06T01:09:31.831Z,101549.03
2023-02-06T01:12:02.175Z,101559.59
2023-02-06T01:14:30.280Z,101544.69
2023-02-06T01:16:58.703Z,101534.94
2023-02-06T01:19:27.236Z,101555.22
2023-02-06T01:22:01.109Z,101549.09
2023-02-06T01:24:29.707Z,101541.22
2023-02-06T01:26:59.507Z,101550.84
2023-02-06T01:29:27.626Z,101563.16
2023-02-06T01:31:55.882Z,101553.44
2023-02-06T01:34:24.699Z,101558.72
2023-02-06T01:36:55.896Z,101562.28
2023-02-06T01:39:24.374Z,101578.09
2023-02-06T01:41:52.551Z,101564.97
2023-02-06T01:44:25.400Z,101564.09
2023-02-06T01:46:56.307Z,101572.00
2023-02-06T01:49:45.554Z,101566.72
2023-02-06T01:52:18.341Z,101572.88
2023-02-06T01:54:51.457Z,101578.22
2023-02-06T01:57:20.917Z,101576.44
2023-02-06T01:59:53.145Z,101573.84
2023-02-06T02:02:23.364Z,101578.19
2023-02-06T02:04:51.499Z,101584.34
2023-02-06T02:07:26.198Z,101576.41
2023-02-06T02:09:56.798Z,101571.16
2023-02-06T02:12:24.764Z,101575.53
2023-02-06T02:14:55.832Z,101576.44
2023-02-06T02:17:28.628Z,101565.97
2023-02-06T02:20:25.180Z,101575.59
2023-02-06T02:23:14.910Z,101584.44
2023-02-06T02:26:03.696Z,101583.56
2023-02-06T02:28:40.960Z,101587.09
2023-02-06T02:31:29.115Z,101582.69
2023-02-06T02:34:09.460Z,101602.88
2023-02-06T02:36:49.191Z,101590.56
2023-02-06T02:39:38.308Z,101594.94
2023-02-06T02:42:19.021Z,101593.16
2023-02-06T02:44:55.161Z,101613.41
2023-02-06T02:47:32.970Z,101597.59
2023-02-06T02:50:03.117Z,101609.00
2023-02-06T02:52:31.250Z,101610.78
2023-02-06T02:54:59.252Z,101610.78
2023-02-06T02:57:33.618Z,101595.84
2023-02-06T03:00:01.973Z,101600.25
2023-02-06T03:02:35.021Z,101602.00
2023-02-06T03:05:06.246Z,101594.06
2023-02-06T03:07:54.184Z,101609.94
2023-02-06T03:10:28.789Z,101598.50
2023-02-06T03:13:37.282Z,101600.25
2023-02-06T03:16:19.018Z,101599.41
2023-02-06T03:19:09.141Z,101603.84
2023-02-06T03:21:40.477Z,101601.19
2023-02-06T03:24:15.188Z,101597.69
2023-02-06T03:26:44.245Z,101607.31
2023-02-06T03:29:14.664Z,101605.50
2023-02-06T03:31:54.774Z,101609.91
2023-02-06T03:34:32.228Z,101605.53
2023-02-06T03:37:00.934Z,101598.50
2023-02-06T03:39:29.555Z,101601.13
2023-02-06T03:42:00.319Z,101607.25
2023-02-06T03:44:33.906Z,101606.38
2023-02-06T03:47:03.276Z,101616.00
2023-02-06T03:49:32.903Z,101609.03
2023-02-06T03:52:07.585Z,101613.47
2023-02-06T03:54:39.837Z,101609.03
2023-02-06T03:57:11.400Z,101609.03
2023-02-06T03:59:39.645Z,101615.19
2023-02-06T04:02:07.975Z,101616.06
2023-02-06T04:04:39.158Z,101620.44
2023-02-06T04:07:18.472Z,101625.69
2023-02-06T04:09:46.611Z,101616.94
2023-02-06T04:12:17.888Z,101617.81
2023-02-06T04:14:47.182Z,101629.25
2023-02-06T04:17:31.335Z,101630.13
2023-02-06T04:20:06.650Z,101631.91
2023-02-06T04:22:35.246Z,101633.63
2023-02-06T04:25:03.444Z,101626.63
2023-02-06T04:27:32.021Z,101624.91
2023-02-06T04:30:02.054Z,101645.97
2023-02-06T04:32:30.582Z,101642.47
2023-02-06T04:34:58.616Z,101648.63
2023-02-06T04:37:26.799Z,101649.47
2023-02-06T04:39:55.436Z,101639.81
2023-02-06T04:42:23.828Z,101639.81
2023-02-06T04:44:51.884Z,101643.31
2023-02-06T04:47:20.388Z,101650.34
2023-02-06T04:49:48.394Z,101645.94
2023-02-06T04:52:16.345Z,101646.84
2023-02-06T04:54:44.335Z,101646.84
2023-02-06T04:57:12.871Z,101648.63
2023-02-06T04:59:41.980Z,101653.00
2023-02-06T05:02:11.396Z,101662.66
2023-02-06T05:04:39.531Z,101660.03
2023-02-06T05:07:07.582Z,101661.78
2023-02-06T05:09:35.821Z,101661.78
2023-02-06T05:12:06.030Z,101659.19
2023-02-06T05:14:34.457Z,101678.50
2023-02-06T05:17:05.329Z,101669.69
2023-02-06T05:19:33.375Z,101670.63
2023-02-06T05:22:01.246Z,101668.84
2023-02-06T05:24:29.607Z,101680.25
2023-02-06T05:26:58.801Z,101675.00
2023-02-06T05:29:27.130Z,101674.97
2023-02-06T05:31:56.302Z,101682.88
2023-02-06T05:34:24.726Z,101685.50
2023-02-06T05:36:52.955Z,101680.25
2023-02-06T05:39:21.583Z,101674.13
2023-02-06T05:41:49.697Z,101674.13
2023-02-06T05:44:17.772Z,101692.56
2023-02-06T05:46:48.854Z,101679.41
2023-02-06T05:49:17.670Z,101682.03
2023-02-06T05:51:45.739Z,101675.03
2023-02-06T05:54:15.672Z,101682.88
2023-02-06T05:56:44.775Z,101687.28
2023-02-06T05:59:13.001Z,101696.91
2023-02-06T06:01:41.090Z,101692.56
2023-02-06T06:04:10.342Z,101696.06
2023-02-06T06:06:38.887Z,101703.94
2023-02-06T06:09:07.292Z,101703.06
2023-02-06T06:11:35.225Z,101709.22
2023-02-06T06:14:03.591Z,101704.84
2023-02-06T06:16:35.651Z,101699.59
2023-02-06T06:19:05.107Z,101711.84
2023-02-06T06:21:34.263Z,101718.00
2023-02-06T06:24:03.289Z,101725.88
2023-02-06T06:26:32.032Z,101730.28
2023-02-06T06:29:00.232Z,101732.03
2023-02-06T06:31:30.391Z,101726.75
2023-02-06T06:33:58.789Z,101736.41
2023-02-06T06:36:26.932Z,101736.41
2023-02-06T06:38:55.922Z,101738.16
2023-02-06T06:41:23.920Z,101736.41
2023-02-06T06:43:52.004Z,101725.88
2023-02-06T06:46:20.036Z,101736.41
2023-02-06T06:48:47.909Z,101723.22
2023-02-06T06:51:16.154Z,101731.09
2023-02-06T06:53:44.477Z,101718.84
2023-02-06T06:56:14.182Z,101720.59
2023-02-06T06:58:43.016Z,101720.63
2023-02-06T07:01:11.367Z,101725.88
2023-02-06T07:03:39.954Z,101724.13
2023-02-06T07:06:07.993Z,101732.91
2023-02-06T07:08:42.160Z,101732.06
2023-02-06T07:11:15.168Z,101730.28
2023-02-06T07:13:44.725Z,101737.31
2023-02-06T07:16:17.473Z,101727.63
2023-02-06T07:18:46.181Z,101727.63
2023-02-06T07:21:16.269Z,101736.41
2023-02-06T07:23:45.054Z,101726.75
2023-02-06T07:26:13.316Z,101729.34
2023-02-06T07:28:45.551Z,101725.84
2023-02-06T07:31:14.334Z,101728.44
2023-02-06T07:33:42.960Z,101721.41
2023-02-06T07:36:12.920Z,101729.31
2023-02-06T07:38:41.768Z,101723.19
2023-02-06T07:41:12.447Z,101716.16
2023-02-06T07:43:41.054Z,101716.13
2023-02-06T07:46:09.217Z,101721.41
2023-02-06T07:48:37.596Z,101716.13
2023-02-06T07:51:07.463Z,101719.59
2023-02-06T07:53:35.921Z,101714.28
2023-02-06T07:56:11.314Z,101715.16
2023-02-06T07:58:39.903Z,101721.25
2023-02-06T08:01:08.265Z,101726.53
2023-02-06T08:03:37.173Z,101740.50
2023-02-06T08:06:10.137Z,101713.31
2023-02-06T08:08:38.611Z,101722.03
2023-02-06T08:11:14.112Z,101708.84
2023-02-06T08:13:43.666Z,101710.59
2023-02-06T08:16:16.187Z,101706.16
2023-02-06T08:18:45.595Z,101707.00
2023-02-06T08:21:19.380Z,101707.81
2023-02-06T08:23:48.295Z,101704.28
2023-02-06T08:26:18.460Z,101713.06
2023-02-06T08:28:49.946Z,101711.25
2023-02-06T08:31:44.373Z,101713.75
2023-02-06T08:34:18.033Z,101718.16
2023-02-06T08:36:46.428Z,101708.44
2023-02-06T08:39:15.608Z,101718.09
2023-02-06T08:41:45.078Z,101716.34
2023-02-06T08:44:16.534Z,101725.16
2023-02-06T08:46:46.200Z,101715.47
2023-02-06T08:49:28.075Z,101709.38
2023-02-06T08:51:56.306Z,101713.78
2023-02-06T08:54:24.649Z,101705.78
2023-02-06T08:56:53.092Z,101696.94
2023-02-06T08:59:21.569Z,101703.03
2023-02-06T09:01:50.234Z,101692.41
2023-02-06T09:04:20.237Z,101690.50
2023-02-06T09:06:49.855Z,101693.00
2023-02-06T09:09:22.173Z,101684.13
2023-02-06T09:11:50.399Z,101684.88
2023-02-06T09:14:18.919Z,101678.72
2023-02-06T09:16:50.182Z,101679.53
2023-02-06T09:19:18.514Z,101677.81
2023-02-06T09:21:51.592Z,101668.94
2023-02-06T09:24:20.971Z,101672.31
2023-02-06T09:26:59.771Z,101688.88
2023-02-06T09:29:29.951Z,101667.59
2023-02-06T09:32:05.821Z,101667.38
2023-02-06T09:34:37.298Z,101672.28
2023-02-06T09:37:08.243Z,101667.94
2023-02-06T09:39:37.626Z,101666.25
2023-02-06T09:42:13.021Z,101677.47
2023-02-06T09:44:48.498Z,101657.94
2023-02-06T09:47:39.982Z,101665.13
2023-02-06T09:50:24.911Z,101657.97
2023-02-06T09:53:09.974Z,101675.56
2023-02-06T09:55:48.326Z,101662.00
2023-02-06T09:58:43.573Z,101664.69
2023-02-06T10:01:25.390Z,101651.41
2023-02-06T10:03:59.084Z,101656.88
2023-02-06T10:06:52.091Z,101653.34
2023-02-06T10:09:41.074Z,101656.22
2023-02-06T10:12:23.804Z,101636.91
2023-02-06T10:14:56.422Z,101641.78
2023-02-06T10:17:37.525Z,101641.88
2023-02-06T10:20:20.048Z,101638.19
2023-02-06T10:22:52.473Z,101638.94
2023-02-06T10:25:38.557Z,101631.22
2023-02-06T10:28:28.330Z,101640.13
2023-02-06T10:31:18.977Z,101661.25
2023-02-06T10:34:06.120Z,101638.59
2023-02-06T10:37:09.752Z,101642.97
2023-02-06T10:40:02.463Z,101643.56
2023-02-06T10:42:58.406Z,101656.47
2023-02-06T10:45:54.548Z,101639.69
2023-02-06T10:48:46.624Z,101637.41
2023-02-06T10:51:42.950Z,101634.84
2023-02-06T10:54:25.556Z,101637.28
2023-02-06T10:56:57.999Z,101647.25
2023-02-06T10:59:35.636Z,101637.59
2023-02-06T11:02:41.815Z,101648.38
2023-02-06T11:05:31.405Z,101651.03
2023-02-06T11:08:11.031Z,101635.06
2023-02-06T11:10:40.101Z,101657.31
2023-02-06T11:13:22.348Z,101633.41
2023-02-06T11:16:08.055Z,101658.88
2023-02-06T11:18:45.788Z,101628.19
2023-02-06T11:21:15.762Z,101644.25
2023-02-06T11:23:44.256Z,101650.50
2023-02-06T11:26:22.068Z,101630.38
2023-02-06T11:28:57.569Z,101637.16
2023-02-06T11:31:50.032Z,101623.19
2023-02-06T11:34:26.131Z,101615.13
2023-02-06T11:37:35.951Z,101636.13
2023-02-06T11:40:19.580Z,101636.34
2023-02-06T11:43:22.784Z,101636.34
2023-02-06T11:46:13.291Z,101638.97
2023-02-06T11:48:44.860Z,101654.06
2023-02-06T11:51:18.491Z,101649.44
2023-02-06T11:54:01.350Z,101643.06
2023-02-06T11:56:32.748Z,101636.13
2023-02-06T11:59:14.194Z,101629.00
2023-02-06T12:01:45.628Z,101638.81
2023-02-06T12:04:27.234Z,101650.59
2023-02-06T12:07:02.112Z,101645.56
2023-02-06T12:09:30.823Z,101667.22
2023-02-06T12:12:23.609Z,101654.00
2023-02-06T12:15:18.203Z,101659.66
2023-02-06T12:17:57.381Z,101655.19
2023-02-06T12:20:30.822Z,101657.69
2023-02-06T12:23:16.962Z,101671.88
2023-02-06T12:25:54.261Z,101655.78
2023-02-06T12:28:29.269Z,101656.72
2023-02-06T12:31:24.071Z,101645.19
2023-02-06T12:34:02.108Z,101654.41
2023-02-06T12:36:48.120Z,101642.53
2023-02-06T12:39:20.507Z,101651.03
2023-02-06T12:42:32.408Z,101643.88
2023-02-06T12:45:33.103Z,101645.31
2023-02-06T12:48:21.635Z,101650.91
2023-02-06T12:51:26.392Z,101652.88
2023-02-06T12:54:11.893Z,101651.19
2023-02-06T12:57:03.427Z,101644.31
2023-02-06T12:59:58.347Z,101653.28
2023-02-06T13:02:46.297Z,101658.59
2023-02-06T13:05:25.495Z,101653.31
2023-02-06T13:07:56.722Z,101670.81
2023-02-06T13:10:26.265Z,101659.41
2023-02-06T13:12:56.042Z,101663.91
2023-02-06T13:15:26.672Z,101678.13
2023-02-06T13:17:56.222Z,101675.53
2023-02-06T13:20:26.473Z,101676.41
2023-02-06T13:23:12.759Z,101691.50
2023-02-06T13:25:41.341Z,101678.41
2023-02-06T13:28:23.824Z,101683.66
2023-02-06T13:31:04.032Z,101681.00
2023-02-06T13:33:45.482Z,101682.81
2023-02-06T13:36:25.993Z,101689.09
2023-02-06T13:39:14.788Z,101693.53
2023-02-06T13:41:46.243Z,101703.25
2023-02-06T13:44:34.575Z,101693.63
2023-02-06T13:47:20.319Z,101698.09
2023-02-06T13:50:20.774Z,101701.56
2023-02-06T13:52:48.694Z,101705.00
2023-02-06T13:55:30.183Z,101706.72
2023-02-06T13:58:22.674Z,101717.28
2023-02-06T14:00:52.179Z,101733.19
2023-02-06T14:03:26.938Z,101717.38
2023-02-06T14:06:10.233Z,101721.78
2023-02-06T14:08:57.005Z,101724.47
2023-02-06T14:12:09.708Z,101723.59
2023-02-06T14:14:44.360Z,101721.88
2023-02-06T14:17:58.996Z,101749.16
2023-02-06T14:20:55.055Z,101770.34
2023-02-06T14:23:45.587Z,101750.16
2023-02-06T14:26:16.357Z,101746.66
2023-02-06T14:29:04.145Z,101747.59
2023-02-06T14:31:46.328Z,101745.84
2023-02-06T14:34:48.366Z,101747.59
2023-02-06T14:37:33.089Z,101756.38
2023-02-06T14:40:05.031Z,101739.69
2023-02-06T14:42:40.467Z,101754.69
2023-02-06T14:45:36.145Z,101766.13
2023-02-06T14:48:54.464Z,101765.28
2023-02-06T14:54:47.277Z,101773.22
2023-02-06T14:57:29.908Z,101768.00
2023-02-06T15:00:05.508Z,101764.50
2023-02-06T15:02:38.491Z,101768.88
2023-02-06T15:05:08.809Z,101778.56
2023-02-06T15:07:40.132Z,101766.22
2023-02-06T15:10:16.110Z,101782.06
2023-02-06T15:12:52.731Z,101786.41
2023-02-06T15:15:27.275Z,101783.81
2023-02-06T15:18:06.822Z,101785.53
2023-02-06T15:20:37.427Z,101786.44
2023-02-06T15:23:32.177Z,101804.88
2023-02-06T15:26:14.542Z,101803.09
2023-02-06T15:28:43.863Z,101810.09
2023-02-06T15:31:22.575Z,101814.50
2023-02-06T15:33:53.877Z,101815.34
2023-02-06T15:36:42.264Z,101817.13
2023-02-06T15:39:13.283Z,101824.13
2023-02-06T15:41:46.219Z,101839.91
2023-02-06T15:44:40.674Z,101830.25
2023-02-06T15:47:13.849Z,101840.78
2023-02-06T15:49:45.093Z,101839.88
2023-02-06T15:52:17.346Z,101843.38
2023-02-06T15:54:58.484Z,101832.88
2023-02-06T15:57:39.904Z,101827.59
2023-02-06T16:00:23.796Z,101830.22
2023-02-06T16:02:54.188Z,101841.63
2023-02-06T16:05:36.700Z,101846.91
2023-02-06T16:08:06.065Z,101845.13
2023-02-06T16:10:39.170Z,101847.75
2023-02-06T16:13:15.252Z,101851.25
2023-02-06T16:16:18.757Z,101871.41
2023-02-06T16:18:48.377Z,101854.78
2023-02-06T16:21:17.320Z,101860.91
2023-02-06T16:24:03.054Z,101853.00
2023-02-06T16:26:49.038Z,101862.66
2023-02-06T16:29:29.582Z,101874.00
2023-02-06T16:32:23.050Z,101866.09
2023-02-06T16:34:52.099Z,101869.66
2023-02-06T16:37:32.996Z,101873.19
2023-02-06T16:40:01.934Z,101867.94
2023-02-06T16:42:35.699Z,101876.69
2023-02-06T16:45:19.828Z,101865.31
2023-02-06T16:47:48.660Z,101856.53
2023-02-06T16:50:18.395Z,101858.25
2023-02-06T16:52:52.322Z,101859.13
2023-02-06T16:55:23.477Z,101857.34
2023-02-06T16:58:01.664Z,101867.78
2023-02-06T17:00:31.757Z,101864.22
2023-02-06T17:02:59.944Z,101857.19
2023-02-06T17:05:28.859Z,101862.41
2023-02-06T17:07:56.934Z,101852.75
2023-02-06T17:10:26.512Z,101867.63
2023-02-06T17:12:54.866Z,101861.50
2023-02-06T17:15:23.064Z,101876.38
2023-02-06T17:17:54.397Z,101874.56
2023-02-06T17:20:34.937Z,101874.53
2023-02-06T17:23:07.240Z,101880.66
2023-02-06T17:25:37.078Z,101871.84
2023-02-06T17:28:07.877Z,101886.72
2023-02-06T17:30:37.252Z,101877.09
2023-02-06T17:33:06.310Z,101884.03
2023-02-06T17:35:39.434Z,101874.34
2023-02-06T17:38:09.435Z,101873.44
2023-02-06T17:40:41.215Z,101881.28
2023-02-06T17:43:12.415Z,101877.78
2023-02-06T17:45:41.679Z,101867.25
2023-02-06T17:48:09.962Z,101876.84
2023-02-06T17:50:46.726Z,101881.16
2023-02-06T17:53:21.487Z,101866.31
2023-02-06T17:55:49.748Z,101862.78
2023-02-06T17:58:21.588Z,101869.78
2023-02-06T18:00:50.390Z,101859.25
2023-02-06T18:03:20.319Z,101870.69
2023-02-06T18:05:57.386Z,101868.03
2023-02-06T18:08:28.992Z,101857.53
2023-02-06T18:11:03.644Z,101854.03
2023-02-06T18:13:32.005Z,101864.50
2023-02-06T18:16:00.716Z,101860.13
2023-02-06T18:18:30.869Z,101866.22
2023-02-06T18:21:02.362Z,101862.66
2023-02-06T18:23:31.098Z,101868.78
2023-02-06T18:26:04.745Z,101867.94
2023-02-06T18:28:34.643Z,101878.47
2023-02-06T18:31:05.442Z,101875.88
2023-02-06T18:33:36.664Z,101876.78
2023-02-06T18:36:06.510Z,101868.00
2023-02-06T18:38:38.005Z,101874.16
2023-02-06T18:41:07.385Z,101878.56
2023-02-06T18:43:36.070Z,101878.63
2023-02-06T18:46:07.851Z,101884.00
2023-02-06T18:48:36.502Z,101871.75
2023-02-06T18:51:07.773Z,101878.88
2023-02-06T18:53:39.006Z,101880.66
2023-02-06T18:56:10.681Z,101878.97
2023-02-06T18:58:38.791Z,101870.25
2023-02-06T19:01:16.735Z,101883.41
2023-02-06T19:03:45.782Z,101874.66
2023-02-06T19:06:18.932Z,101883.41
2023-02-06T19:08:49.792Z,101865.00
2023-02-06T19:11:21.170Z,101858.91
2023-02-06T19:13:49.840Z,101867.72
2023-02-06T19:16:22.416Z,101861.53
2023-02-06T19:18:52.111Z,101865.94
2023-02-06T19:21:23.013Z,101869.44
2023-02-06T19:23:58.439Z,101869.44
2023-02-06T19:26:29.580Z,101869.47
2023-02-06T19:28:59.462Z,101866.84
2023-02-06T19:31:27.870Z,101864.25
2023-02-06T19:33:59.414Z,101859.00
2023-02-06T19:36:29.140Z,101863.34
2023-02-06T19:39:03.089Z,101856.38
2023-02-06T19:41:33.461Z,101858.13
2023-02-06T19:44:04.872Z,101854.66
2023-02-06T19:46:33.757Z,101854.66
2023-02-06T19:49:06.659Z,101865.16
2023-02-06T19:51:39.719Z,101855.53
2023-02-06T19:54:08.647Z,101845.88
2023-02-06T19:56:42.370Z,101855.53
2023-02-06T19:59:18.629Z,101851.19
2023-02-06T20:01:53.121Z,101852.97
2023-02-06T20:04:24.934Z,101852.03
2023-02-06T20:06:56.131Z,101855.53
2023-02-06T20:09:24.768Z,101856.47
2023-02-06T20:11:54.642Z,101874.84
2023-02-06T20:14:23.960Z,101868.69
2023-02-06T20:16:52.113Z,101871.34
2023-02-06T20:19:25.725Z,101880.16
2023-02-06T20:21:56.672Z,101882.75
2023-02-06T20:24:27.970Z,101874.84
2023-02-06T20:26:59.209Z,101887.09
2023-02-06T20:29:30.101Z,101878.41
2023-02-06T20:31:59.229Z,101874.91
2023-02-06T20:34:28.672Z,101893.31
2023-02-06T20:36:57.913Z,101895.06
2023-02-06T20:39:27.571Z,101898.59
2023-02-06T20:41:56.562Z,101893.34
2023-02-06T20:44:26.376Z,101890.69
2023-02-06T20:46:57.559Z,101891.59
2023-02-06T20:49:28.641Z,101887.19
2023-02-06T20:51:57.260Z,101895.97
2023-02-06T20:54:26.115Z,101895.09
2023-02-06T20:56:54.921Z,101912.66
2023-02-06T20:59:23.337Z,101896.84
2023-02-06T21:01:54.598Z,101905.59
2023-02-06T21:04:22.963Z,101896.88
2023-02-06T21:06:51.551Z,101900.34
2023-02-06T21:09:21.505Z,101914.34
2023-02-06T21:11:50.700Z,101902.97
2023-02-06T21:14:19.996Z,101902.97
2023-02-06T21:16:49.716Z,101904.69
2023-02-06T21:19:21.111Z,101916.09
2023-02-06T21:21:50.309Z,101911.72
2023-02-06T21:24:18.944Z,101917.91
2023-02-06T21:26:48.038Z,101913.53
2023-02-06T21:29:16.876Z,101902.13
2023-02-06T21:31:46.545Z,101913.53
2023-02-06T21:34:17.535Z,101917.91
2023-02-06T21:36:46.239Z,101919.66
2023-02-06T21:39:21.601Z,101919.66
2023-02-06T21:41:54.428Z,101920.53
2023-02-06T21:44:27.110Z,101900.38
2023-02-06T21:46:56.583Z,101909.19
2023-02-06T21:49:24.942Z,101911.81
2023-02-06T21:51:53.544Z,101932.84
2023-02-06T21:54:22.357Z,101918.00
2023-02-06T21:56:52.230Z,101917.13
2023-02-06T21:59:20.424Z,101908.31
2023-02-06T22:01:48.564Z,101903.94
2023-02-06T22:04:17.449Z,101900.41
2023-02-06T22:06:47.593Z,101909.19
2023-02-06T22:09:21.978Z,101913.59
2023-02-06T22:11:50.261Z,101923.25
2023-02-06T22:14:18.752Z,101928.50
2023-02-06T22:16:49.047Z,101917.09
2023-02-06T22:19:17.845Z,101926.75
2023-02-06T22:21:49.543Z,101926.75
2023-02-06T22:24:18.819Z,101927.59
2023-02-06T22:26:47.642Z,101924.97
2023-02-06T22:29:17.765Z,101917.06
2023-02-06T22:31:46.310Z,101919.69
2023-02-06T22:34:19.978Z,101930.25
2023-02-06T22:36:51.482Z,101905.69
2023-02-06T22:39:20.425Z,101917.09
2023-02-06T22:41:50.550Z,101906.56
2023-02-06T22:44:20.570Z,101901.28
2023-02-06T22:46:53.746Z,101930.22
2023-02-06T22:49:25.387Z,101908.34
2023-02-06T22:51:54.465Z,101913.59
2023-02-06T22:54:22.857Z,101908.31
2023-02-06T22:56:51.466Z,101892.53
2023-02-06T22:59:23.233Z,101889.91
2023-02-06T23:01:56.810Z,101897.78
2023-02-06T23:04:31.638Z,101901.31
2023-02-06T23:06:59.677Z,101891.66
2023-02-06T23:09:36.759Z,101910.94
2023-02-06T23:12:11.640Z,101889.91
2023-02-06T23:14:40.366Z,101896.91
2023-02-06T23:17:11.430Z,101898.69
2023-02-06T23:19:40.864Z,101896.06
2023-02-06T23:22:11.515Z,101901.31
2023-02-06T23:24:43.420Z,101905.69
2023-02-06T23:27:12.290Z,101905.66
2023-02-06T23:29:40.385Z,101902.19
2023-02-06T23:32:08.626Z,101907.47
2023-02-06T23:34:40.064Z,101910.94
2023-02-06T23:37:08.597Z,101902.16
2023-02-06T23:39:37.927Z,101897.81
2023-02-06T23:42:08.638Z,101912.72
2023-02-06T23:44:38.655Z,101903.97
2023-02-06T23:47:06.609Z,101895.16
2023-02-06T23:49:35.297Z,101896.91
2023-02-06T23:52:03.334Z,101901.28
2023-02-06T23:54:31.722Z,101904.75
2023-02-06T23:57:00.181Z,101912.69
2023-02-06T23:59:28.826Z,101899.50
